Time;durP1;ratioP1;P1;durP2;ratioP2;P2;SDS_P1;SDS_P2;PMS_P1;PMS_P2;Temp;Humidity;BMP_temperature;BMP_pressure;BME280_temperature;BME280_humidity;BME280_pressure;Samples;Min_cycle;Max_cycle;Signal;HPM_P1;HPM_P2
2024/01/16 00:01:05;;;;;;;3.40;3.10;;;;;;;0.79;54.90;95547.88;5086214;28;20415;-65
2024/01/16 00:03:31;;;;;;;3.80;2.73;;;;;;;0.73;55.74;95548.00;5086660;28;20197;-67
2024/01/16 00:05:57;;;;;;;10.73;3.70;;;;;;;0.66;55.16;95549.00;5086774;28;21006;-66
2024/01/16 00:08:22;;;;;;;4.90;3.70;;;;;;;0.63;55.20;95555.91;5086157;28;20193;-67
2024/01/16 00:10:47;;;;;;;4.30;2.90;;;;;;;0.70;55.36;95554.06;5086302;28;20188;-67
2024/01/16 00:13:13;;;;;;;5.80;3.97;;;;;;;0.71;54.65;95562.66;5085797;28;20321;-67
2024/01/16 00:15:41;;;;;;;5.03;3.00;;;;;;;0.68;55.37;95554.97;5084864;28;20181;-66
2024/01/16 00:18:08;;;;;;;4.20;3.67;;;;;;;0.64;54.85;95549.03;5084760;28;20288;-67
2024/01/16 00:20:33;;;;;;;4.63;3.70;;;;;;;0.63;55.24;95549.91;5084253;28;20488;-66
2024/01/16 00:22:59;;;;;;;7.33;3.80;;;;;;;0.55;54.93;95550.06;5085108;28;21126;-66
2024/01/16 00:25:25;;;;;;;4.60;4.03;;;;;;;0.73;54.80;95553.16;5085130;28;20201;-67
2024/01/16 00:27:51;;;;;;;7.77;3.80;;;;;;;0.53;54.82;95553.53;5084631;28;21039;-66
2024/01/16 00:30:16;;;;;;;10.03;3.93;;;;;;;0.41;55.50;95550.31;5087372;28;20918;-66
2024/01/16 00:32:42;;;;;;;6.10;3.60;;;;;;;0.40;54.78;95560.63;5089026;28;20177;-65
2024/01/16 00:35:08;;;;;;;4.50;3.47;;;;;;;0.40;55.30;95558.06;5089493;28;20173;-66
2024/01/16 00:37:35;;;;;;;4.93;3.70;;;;;;;0.40;54.57;95553.78;5088615;28;20189;-67
2024/01/16 00:40:00;;;;;;;4.70;3.20;;;;;;;0.32;54.99;95553.03;5088504;28;20992;-67
2024/01/16 00:42:26;;;;;;;3.13;2.83;;;;;;;0.25;54.81;95556.59;5088522;28;20502;-67
2024/01/16 00:44:52;;;;;;;4.67;3.10;;;;;;;0.34;55.26;95561.63;5088569;28;20707;-66
2024/01/16 00:47:17;;;;;;;4.60;3.23;;;;;;;0.35;55.36;95565.03;5088384;28;20420;-66
2024/01/16 00:49:42;;;;;;;6.07;4.23;;;;;;;0.30;55.92;95565.13;5088727;28;20194;-67
2024/01/16 00:52:08;;;;;;;6.63;3.77;;;;;;;0.34;54.92;95563.34;5088553;28;20169;-66
2024/01/16 00:54:33;;;;;;;5.40;4.03;;;;;;;0.16;56.02;95567.94;5088542;28;20920;-66
2024/01/16 00:56:59;;;;;;;3.70;3.03;;;;;;;0.15;55.83;95566.25;5088289;28;20604;-67
2024/01/16 00:59:27;;;;;;;6.10;3.20;;;;;;;0.10;55.60;95569.78;5088071;28;20213;-66
2024/01/16 01:01:53;;;;;;;4.63;3.30;;;;;;;0.04;55.67;95577.59;5088473;28;20502;-66
2024/01/16 01:04:18;;;;;;;4.37;3.47;;;;;;;0.11;56.00;95580.06;5088926;28;20418;-65
2024/01/16 01:06:44;;;;;;;4.80;3.60;;;;;;;0.09;55.51;95579.22;5108037;28;20170;-67
2024/01/16 01:09:11;;;;;;;6.67;3.97;;;;;;;0.04;56.00;95578.44;5112307;28;20338;-69
2024/01/16 01:11:38;;;;;;;5.40;3.50;;;;;;;-0.03;55.92;95582.00;5113084;28;20161;-67
2024/01/16 01:14:03;;;;;;;5.23;3.70;;;;;;;0.14;55.20;95590.34;5103194;28;20407;-66
2024/01/16 01:16:29;;;;;;;8.93;3.67;;;;;;;-0.05;55.90;95594.94;5089171;28;20446;-67
2024/01/16 01:18:54;;;;;;;7.73;3.07;;;;;;;-0.08;56.07;95599.28;5087838;28;20201;-67
2024/01/16 01:21:19;;;;;;;6.90;3.40;;;;;;;-0.12;55.50;95602.78;5088145;28;20224;-67
2024/01/16 01:23:45;;;;;;;5.60;3.83;;;;;;;-0.52;56.05;95598.19;5087872;28;20661;-67
2024/01/16 01:26:13;;;;;;;5.67;3.80;;;;;;;-0.28;55.83;95604.75;5087907;28;20283;-67
2024/01/16 01:28:40;;;;;;;6.03;3.43;;;;;;;-0.36;55.98;95598.84;5087675;28;20567;-66
2024/01/16 01:31:05;;;;;;;4.87;3.63;;;;;;;-0.37;56.46;95610.88;5087554;28;20502;-66
2024/01/16 01:33:30;;;;;;;7.20;3.60;;;;;;;-0.40;55.90;95618.66;5087651;28;20411;-67
2024/01/16 01:35:56;;;;;;;5.80;3.10;;;;;;;-0.41;55.78;95611.78;5087539;28;20174;-66
2024/01/16 01:38:21;;;;;;;4.23;3.70;;;;;;;-0.42;56.09;95604.94;5087190;28;20213;-67
2024/01/16 01:40:47;;;;;;;5.23;3.67;;;;;;;-0.30;56.02;95615.06;5087195;28;20173;-67
2024/01/16 01:43:24;;;;;;;3.43;3.00;;;;;;;-0.34;55.52;95618.56;5087405;28;20177;-67
2024/01/16 01:46:07;;;;;;;3.60;2.90;;;;;;;-0.43;56.03;95618.69;5087345;28;20177;-67
2024/01/16 01:48:33;;;;;;;3.70;3.27;;;;;;;-0.48;55.81;95620.47;5087611;28;20428;-67
2024/01/16 01:51:00;;;;;;;5.10;3.27;;;;;;;-0.73;57.18;95625.09;5088434;28;20414;-67
2024/01/16 01:53:25;;;;;;;5.30;3.60;;;;;;;-0.71;56.93;95619.06;5087397;28;20185;-67
2024/01/16 01:55:51;;;;;;;6.57;4.20;;;;;;;-0.70;56.71;95613.03;5086632;28;20411;-66
2024/01/16 01:58:16;;;;;;;9.27;5.20;;;;;;;-0.52;55.80;95616.22;5086795;28;20205;-66
2024/01/16 02:00:42;;;;;;;5.60;3.40;;;;;;;-0.40;55.77;95607.47;5087240;28;20253;-66
2024/01/16 02:03:08;;;;;;;4.43;4.00;;;;;;;-0.27;55.38;95607.28;5087401;28;20536;-65
2024/01/16 02:05:33;;;;;;;5.43;3.40;;;;;;;-0.21;55.63;95608.94;5087496;28;20238;-65
2024/01/16 02:08:00;;;;;;;4.37;3.30;;;;;;;-0.33;55.22;95609.97;5086962;28;20485;-67
2024/01/16 02:10:26;;;;;;;4.20;3.43;;;;;;;-0.44;55.77;95611.84;5087371;28;20169;-65
2024/01/16 02:12:51;;;;;;;4.87;3.50;;;;;;;-0.37;55.96;95612.63;5086931;28;20507;-66
2024/01/16 02:15:16;;;;;;;4.97;3.87;;;;;;;-0.57;56.05;95616.28;5088052;28;20174;-68
2024/01/16 02:17:42;;;;;;;4.70;3.53;;;;;;;-0.57;56.31;95613.72;5088401;28;20581;-66
2024/01/16 02:20:07;;;;;;;4.80;3.97;;;;;;;-0.59;56.50;95619.75;5089120;28;20281;-66
2024/01/16 02:22:35;;;;;;;15.47;3.93;;;;;;;-0.67;57.24;95615.56;5090112;28;20592;-66
2024/01/16 02:25:00;;;;;;;7.07;3.70;;;;;;;-0.60;56.77;95610.34;5091276;28;20230;-66
2024/01/16 02:27:25;;;;;;;4.23;3.83;;;;;;;-0.65;56.52;95616.41;5090204;28;20415;-67
2024/01/16 02:29:51;;;;;;;5.07;3.77;;;;;;;-0.56;56.18;95612.00;5087050;28;20285;-65
2024/01/16 02:32:16;;;;;;;6.00;4.20;;;;;;;-0.50;56.01;95606.75;5087080;28;20177;-67
2024/01/16 02:34:42;;;;;;;5.10;3.80;;;;;;;-0.61;56.16;95603.47;5086392;28;20281;-66
2024/01/16 02:37:07;;;;;;;6.07;3.83;;;;;;;-0.58;55.87;95611.19;5086304;28;20189;-66
2024/01/16 02:39:33;;;;;;;5.30;3.30;;;;;;;-0.68;55.82;95611.28;5086381;28;20266;-66
2024/01/16 02:41:58;;;;;;;4.17;3.07;;;;;;;-0.62;55.84;95604.34;5086391;28;20715;-66
2024/01/16 02:44:23;;;;;;;9.40;3.70;;;;;;;-0.73;56.06;95605.34;5086501;28;20187;-66
2024/01/16 02:46:49;;;;;;;7.10;3.13;;;;;;;-0.72;56.03;95601.03;5086458;28;20186;-66
2024/01/16 02:49:15;;;;;;;4.73;3.20;;;;;;;-0.92;56.18;95604.72;5085822;28;20190;-66
2024/01/16 02:51:41;;;;;;;4.50;3.33;;;;;;;-0.80;55.77;95602.84;5085814;28;20187;-65
2024/01/16 02:54:08;;;;;;;4.20;3.13;;;;;;;-0.82;55.70;95600.31;5086521;28;20415;-66
2024/01/16 02:56:33;;;;;;;6.27;3.03;;;;;;;-0.74;55.59;95605.34;5087053;28;20186;-66
2024/01/16 02:58:58;;;;;;;4.37;3.80;;;;;;;-0.65;55.24;95595.78;5085458;28;20588;-67
2024/01/16 03:01:24;;;;;;;4.40;3.27;;;;;;;-0.71;55.52;95605.31;5085761;28;20169;-67
2024/01/16 03:03:49;;;;;;;4.30;2.93;;;;;;;-0.92;55.82;95603.84;5085844;28;20177;-67
2024/01/16 03:06:24;;;;;;;4.30;3.20;;;;;;;-0.94;55.90;95606.47;5085556;28;20185;-66
2024/01/16 03:08:51;;;;;;;3.73;3.43;;;;;;;-1.00;55.80;95600.53;5085528;28;20281;-67
2024/01/16 03:11:16;;;;;;;10.27;4.00;;;;;;;-0.77;54.76;95603.69;5086082;28;20435;-71
2024/01/16 03:13:43;;;;;;;5.93;3.80;;;;;;;-0.82;55.20;95608.03;5086326;28;20512;-67
2024/01/16 03:16:10;;;;;;;5.30;3.47;;;;;;;-0.83;54.72;95608.91;5085692;28;20239;-67
2024/01/16 03:18:35;;;;;;;4.80;3.90;;;;;;;-0.98;55.51;95614.25;5085643;28;21386;-67
2024/01/16 03:21:01;;;;;;;8.70;3.37;;;;;;;-1.21;56.11;95611.91;5085483;28;20412;-66
2024/01/16 03:23:26;;;;;;;3.90;3.50;;;;;;;-1.12;55.59;95614.41;5085574;28;20186;-67
2024/01/16 03:25:52;;;;;;;4.33;3.70;;;;;;;-1.12;55.91;95612.66;5085777;28;20173;-67
2024/01/16 03:28:17;;;;;;;6.43;3.80;;;;;;;-1.22;56.68;95605.94;5085274;28;20208;-67
2024/01/16 03:30:43;;;;;;;3.33;2.93;;;;;;;-1.10;55.87;95605.78;5085289;28;20265;-67
2024/01/16 03:33:09;;;;;;;5.33;3.47;;;;;;;-1.36;56.73;95607.78;5085426;28;20285;-65
2024/01/16 03:35:34;;;;;;;5.53;3.73;;;;;;;-1.32;56.77;95604.31;5085544;28;20174;-66
2024/01/16 03:37:59;;;;;;;5.47;3.57;;;;;;;-1.38;56.89;95612.09;5084996;28;20218;-65
2024/01/16 03:40:25;;;;;;;4.70;3.37;;;;;;;-1.28;56.63;95621.41;5085594;28;20226;-66
2024/01/16 03:42:50;;;;;;;3.90;3.47;;;;;;;-1.29;56.62;95630.03;5105823;28;20201;-67
2024/01/16 03:45:16;;;;;;;4.90;3.70;;;;;;;-1.24;55.94;95623.09;5087148;28;20241;-66
2024/01/16 03:47:41;;;;;;;4.00;3.60;;;;;;;-1.43;56.69;95627.59;5086455;28;20184;-66
2024/01/16 03:50:07;;;;;;;5.63;3.40;;;;;;;-1.33;56.45;95633.50;5086043;28;20251;-66
2024/01/16 03:52:32;;;;;;;5.83;3.20;;;;;;;-1.34;56.15;95632.66;5086564;28;20192;-67
2024/01/16 03:54:57;;;;;;;7.90;4.37;;;;;;;-1.50;57.00;95636.22;5086092;28;20585;-67
2024/01/16 03:57:24;;;;;;;5.70;3.73;;;;;;;-1.38;56.45;95630.13;5085445;28;20173;-67
2024/01/16 03:59:50;;;;;;;6.03;4.27;;;;;;;-1.53;56.92;95631.97;5084826;28;20205;-65
2024/01/16 04:02:15;;;;;;;8.70;3.87;;;;;;;-1.40;56.34;95634.41;5085702;28;20507;-66
2024/01/16 04:04:40;;;;;;;4.93;3.70;;;;;;;-1.65;56.38;95624.38;5087553;28;20165;-66
2024/01/16 04:07:06;;;;;;;4.97;3.60;;;;;;;-1.52;55.91;95633.66;5089855;28;20173;-66
2024/01/16 04:09:31;;;;;;;7.73;3.80;;;;;;;-1.57;56.56;95632.00;5089808;28;20269;-67
2024/01/16 04:11:56;;;;;;;7.30;3.97;;;;;;;-1.47;56.56;95628.47;5089012;28;20177;-66
2024/01/16 04:14:22;;;;;;;4.50;3.50;;;;;;;-1.58;56.98;95633.72;5089453;28;20174;-66
2024/01/16 04:16:47;;;;;;;6.03;3.60;;;;;;;-1.69;57.14;95625.25;5089311;28;20536;-66
2024/01/16 04:19:13;;;;;;;5.97;3.90;;;;;;;-1.54;56.46;95643.09;5088696;28;20280;-66
2024/01/16 04:21:38;;;;;;;4.03;3.33;;;;;;;-1.67;56.82;95638.09;5089036;28;20184;-66
2024/01/16 04:24:03;;;;;;;5.87;4.37;;;;;;;-2.08;57.92;95642.69;5088877;28;20178;-67
2024/01/16 04:26:29;;;;;;;5.80;4.13;;;;;;;-1.67;57.91;95640.69;5088842;28;20173;-66
2024/01/16 04:28:54;;;;;;;6.20;3.47;;;;;;;-1.85;57.79;95639.94;5088637;28;20185;-67
2024/01/16 04:31:22;;;;;;;7.30;4.10;;;;;;;-1.65;56.92;95637.22;5088766;28;20655;-67
2024/01/16 04:33:47;;;;;;;6.73;3.93;;;;;;;-1.72;57.69;95636.41;5088244;28;20181;-65
2024/01/16 04:36:13;;;;;;;4.90;4.30;;;;;;;-1.66;57.33;95639.81;5088560;28;20422;-67
2024/01/16 04:38:38;;;;;;;5.87;3.70;;;;;;;-1.74;57.01;95642.44;5088053;28;20252;-66
2024/01/16 04:41:04;;;;;;;4.80;3.60;;;;;;;-1.71;57.13;95642.41;5088459;28;20178;-67
2024/01/16 04:43:29;;;;;;;7.70;4.60;;;;;;;-1.69;57.11;95643.25;5088295;28;20177;-66
2024/01/16 04:45:55;;;;;;;4.87;4.10;;;;;;;-1.87;57.28;95645.97;5088604;28;20206;-66
2024/01/16 04:48:20;;;;;;;8.27;4.00;;;;;;;-1.85;57.28;95649.38;5088337;28;20207;-66
2024/01/16 04:50:46;;;;;;;8.97;4.23;;;;;;;-1.81;56.70;95645.94;5088410;28;20555;-66
2024/01/16 04:53:11;;;;;;;8.03;4.83;;;;;;;-1.88;56.98;95646.84;5088391;28;20708;-66
2024/01/16 04:55:36;;;;;;;4.67;3.37;;;;;;;-1.87;57.10;95649.38;5089196;28;20177;-66
2024/01/16 04:58:02;;;;;;;6.53;3.67;;;;;;;-1.96;56.95;95646.88;5088370;28;20199;-66
2024/01/16 05:00:27;;;;;;;5.70;4.23;;;;;;;-1.84;57.22;95664.81;5088686;28;20195;-66
2024/01/16 05:02:53;;;;;;;4.27;3.80;;;;;;;-1.97;57.03;95663.19;5090264;28;20177;-66
2024/01/16 05:05:18;;;;;;;7.93;4.00;;;;;;;-1.99;56.84;95663.19;5090616;28;20224;-66
2024/01/16 05:07:44;;;;;;;6.07;3.90;;;;;;;-1.93;56.38;95662.31;5089852;28;20288;-65
2024/01/16 05:10:12;;;;;;;5.43;3.40;;;;;;;-2.05;57.03;95675.25;5088420;28;20216;-66
2024/01/16 05:12:39;;;;;;;6.23;4.17;;;;;;;-2.20;57.92;95656.47;5088671;28;20187;-66
2024/01/16 05:15:05;;;;;;;3.93;3.20;;;;;;;-2.15;57.06;95659.88;5090352;28;20503;-66
2024/01/16 05:17:30;;;;;;;15.30;4.77;;;;;;;-2.03;57.27;95651.25;5089065;28;20503;-66
2024/01/16 05:19:56;;;;;;;10.07;3.77;;;;;;;-2.04;57.13;95654.66;5087830;28;20457;-66
2024/01/16 05:22:22;;;;;;;4.87;3.70;;;;;;;-2.04;57.51;95648.66;5087599;28;20181;-66
2024/01/16 05:24:47;;;;;;;7.77;3.80;;;;;;;-2.06;57.33;95651.25;5087782;28;20778;-66
2024/01/16 05:27:12;;;;;;;4.57;3.57;;;;;;;-1.98;56.93;95649.50;5075849;28;20571;-66
2024/01/16 05:29:41;;;;;;;6.13;4.00;;;;;;;-2.05;56.82;95655.53;5065578;28;20240;-66
2024/01/16 05:32:06;;;;;;;5.03;4.27;;;;;;;-2.26;57.14;95642.84;5067160;28;20197;-67
2024/01/16 05:34:32;;;;;;;4.33;3.93;;;;;;;-2.09;57.40;95646.13;5067689;28;20452;-67
2024/01/16 05:36:57;;;;;;;6.97;4.37;;;;;;;-2.04;57.71;95656.38;5067397;28;20175;-65
2024/01/16 05:39:22;;;;;;;7.30;4.03;;;;;;;-2.07;57.21;95656.41;5067226;28;20247;-67
2024/01/16 05:41:48;;;;;;;5.83;3.60;;;;;;;-2.05;57.04;95646.97;5067576;28;20185;-66
2024/01/16 05:44:13;;;;;;;5.00;3.90;;;;;;;-2.10;56.99;95649.59;5065378;28;20174;-67
2024/01/16 05:46:39;;;;;;;5.37;3.70;;;;;;;-2.01;57.39;95646.06;5080342;28;20847;-66
2024/01/16 05:49:04;;;;;;;5.27;3.40;;;;;;;-2.12;56.49;95638.44;5086333;28;20564;-67
2024/01/16 05:51:30;;;;;;;4.63;3.27;;;;;;;-2.08;57.20;95636.69;5084228;28;20189;-66
2024/01/16 05:53:55;;;;;;;6.00;3.00;;;;;;;-2.22;57.41;95634.22;5072477;28;20669;-67
2024/01/16 05:56:21;;;;;;;3.83;3.40;;;;;;;-2.16;57.38;95634.19;5071752;28;20185;-67
2024/01/16 05:58:46;;;;;;;6.27;3.50;;;;;;;-2.10;56.19;95630.72;5070842;28;20279;-66
2024/01/16 06:01:14;;;;;;;4.87;3.87;;;;;;;-2.16;56.13;95626.47;5070264;28;20181;-66
2024/01/16 06:03:40;;;;;;;6.10;3.70;;;;;;;-2.17;57.41;95622.22;5081100;28;20192;-66
2024/01/16 06:06:07;;;;;;;5.20;3.50;;;;;;;-2.16;57.36;95621.34;5077482;28;20440;-67
2024/01/16 06:08:32;;;;;;;4.30;3.73;;;;;;;-2.15;56.08;95621.34;5064991;28;20202;-67
2024/01/16 06:10:58;;;;;;;6.43;4.60;;;;;;;-2.17;57.38;95624.78;5069060;28;20444;-66
2024/01/16 06:13:23;;;;;;;5.63;4.03;;;;;;;-2.25;58.12;95624.81;5077441;28;21948;-67
2024/01/16 06:15:48;;;;;;;5.03;4.53;;;;;;;-2.26;57.46;95623.13;5078151;28;20204;-66
2024/01/16 06:18:14;;;;;;;5.60;4.70;;;;;;;-2.32;58.12;95618.00;5077042;28;20240;-66
2024/01/16 06:20:39;;;;;;;9.90;4.23;;;;;;;-2.28;57.61;95618.84;5066584;28;20186;-67
2024/01/16 06:23:05;;;;;;;5.60;4.23;;;;;;;-2.31;58.40;95616.31;5072595;28;20598;-68
2024/01/16 06:25:30;;;;;;;8.70;4.20;;;;;;;-2.37;58.39;95620.59;5081530;28;20189;-67
2024/01/16 06:27:55;;;;;;;7.30;4.77;;;;;;;-2.38;58.82;95618.06;5069905;28;20189;-66
2024/01/16 06:30:23;;;;;;;4.70;4.30;;;;;;;-2.33;57.94;95623.19;5072494;28;20184;-65
2024/01/16 06:32:48;;;;;;;5.70;4.27;;;;;;;-2.30;58.51;95620.56;5077363;28;20268;-67
2024/01/16 06:35:15;;;;;;;7.60;5.80;;;;;;;-2.29;58.32;95622.28;5085738;28;20855;-66
2024/01/16 06:37:41;;;;;;;6.47;5.47;;;;;;;-2.23;58.74;95629.94;5085861;28;20489;-66
2024/01/16 06:40:07;;;;;;;5.97;4.67;;;;;;;-2.18;59.08;95628.19;5085243;28;20475;-67
2024/01/16 06:42:32;;;;;;;12.63;4.97;;;;;;;-2.04;58.60;95628.94;5086200;28;20265;-67
2024/01/16 06:44:57;;;;;;;7.27;4.63;;;;;;;-1.93;57.67;95631.47;5087808;28;20170;-66
2024/01/16 06:47:23;;;;;;;9.43;5.90;;;;;;;-2.00;57.42;95635.78;5086002;28;20188;-67
2024/01/16 06:49:49;;;;;;;6.60;5.43;;;;;;;-2.11;57.73;95639.28;5091157;28;20213;-65
2024/01/16 06:52:14;;;;;;;8.80;5.50;;;;;;;-2.09;57.50;95635.00;5103843;28;20192;-65
2024/01/16 06:54:40;;;;;;;11.90;8.03;;;;;;;-2.13;57.93;95639.28;5106143;28;20191;-65
2024/01/16 06:57:05;;;;;;;5.40;4.43;;;;;;;-2.08;58.33;95640.09;5099054;28;20221;-64
2024/01/16 06:59:30;;;;;;;8.87;4.83;;;;;;;-2.12;57.06;95646.16;5085862;28;20619;-64
2024/01/16 07:01:56;;;;;;;12.33;4.63;;;;;;;-2.22;57.96;95649.63;5084348;28;20184;-65
2024/01/16 07:04:21;;;;;;;13.60;6.50;;;;;;;-2.23;57.98;95659.06;5084377;28;20176;-66
2024/01/16 07:06:47;;;;;;;11.80;5.70;;;;;;;-2.05;56.93;95649.53;5085910;28;20199;-68
2024/01/16 07:09:12;;;;;;;8.70;4.90;;;;;;;-2.08;57.47;95649.53;5085670;28;20222;-66
2024/01/16 07:11:42;;;;;;;9.40;5.30;;;;;;;-2.10;58.14;95657.28;5084095;28;20173;-66
2024/01/16 07:14:08;;;;;;;6.20;5.07;;;;;;;-2.09;57.06;95655.56;5084634;28;20319;-70
2024/01/16 07:16:33;;;;;;;7.67;4.80;;;;;;;-1.98;56.80;95656.34;5084991;28;20911;-67
2024/01/16 07:18:58;;;;;;;7.13;4.67;;;;;;;-2.01;57.18;95657.22;5084197;28;20236;-67
2024/01/16 07:21:24;;;;;;;9.80;5.43;;;;;;;-1.89;57.93;95658.88;5083789;28;20256;-66
2024/01/16 07:23:49;;;;;;;6.67;5.20;;;;;;;-1.90;56.94;95648.56;5084533;28;20671;-66
2024/01/16 07:26:16;;;;;;;5.17;4.43;;;;;;;-1.84;56.82;95653.66;5084582;28;20177;-68
2024/01/16 07:28:42;;;;;;;7.30;4.93;;;;;;;-1.90;56.93;95651.16;5084286;28;20295;-65
2024/01/16 07:31:09;;;;;;;7.20;4.40;;;;;;;-1.80;57.35;95647.63;5086983;28;20424;-67
2024/01/16 07:33:34;;;;;;;6.60;5.20;;;;;;;-1.83;57.17;95647.66;5086033;28;20662;-67
2024/01/16 07:36:00;;;;;;;10.00;4.20;;;;;;;-1.67;55.85;95635.53;5086053;28;20415;-67
2024/01/16 07:38:25;;;;;;;5.70;4.30;;;;;;;-1.80;55.68;95633.03;5077693;28;20209;-67
2024/01/16 07:40:51;;;;;;;12.17;5.20;;;;;;;-1.75;56.00;95638.16;5083137;28;20169;-66
2024/01/16 07:43:16;;;;;;;5.20;3.80;;;;;;;-1.80;56.17;95625.31;5079985;28;20177;-66
2024/01/16 07:45:41;;;;;;;6.43;4.07;;;;;;;-1.77;56.04;95627.03;5085435;28;20241;-66
2024/01/16 07:48:08;;;;;;;6.43;4.53;;;;;;;-1.89;55.95;95629.69;5085856;28;20184;-67
2024/01/16 07:50:33;;;;;;;6.80;4.27;;;;;;;-1.81;57.09;95633.06;5087717;28;20266;-66
2024/01/16 07:52:59;;;;;;;6.03;4.70;;;;;;;-1.89;56.89;95639.97;5082963;28;20525;-66
2024/01/16 07:55:24;;;;;;;5.10;4.60;;;;;;;-1.82;56.97;95645.09;5090303;28;20177;-71
2024/01/16 07:57:49;;;;;;;7.53;4.63;;;;;;;-1.80;56.54;95632.19;5089382;28;20193;-66
2024/01/16 08:00:15;;;;;;;8.03;4.63;;;;;;;-1.81;56.01;95625.38;5088287;28;20213;-67
2024/01/16 08:02:41;;;;;;;4.90;4.43;;;;;;;-1.86;56.17;95627.13;5081818;28;20182;-66
2024/01/16 08:05:07;;;;;;;7.17;4.30;;;;;;;-1.79;56.78;95621.91;5080528;28;20189;-67
2024/01/16 08:07:32;;;;;;;11.90;5.00;;;;;;;-1.83;56.38;95615.06;5077265;28;20233;-67
2024/01/16 08:09:58;;;;;;;12.67;6.43;;;;;;;-1.81;56.19;95621.06;5071438;28;20209;-65
2024/01/16 08:12:23;;;;;;;10.23;5.00;;;;;;;-1.89;56.60;95620.28;5079469;28;20234;-64
2024/01/16 08:14:48;;;;;;;8.50;4.90;;;;;;;-2.01;56.54;95618.66;5085033;28;20179;-67
2024/01/16 08:17:14;;;;;;;7.63;5.73;;;;;;;-1.97;57.10;95622.91;5083967;28;20177;-66
2024/01/16 08:19:40;;;;;;;9.57;5.33;;;;;;;-1.95;57.19;95623.75;5077096;28;20205;-66
2024/01/16 08:22:06;;;;;;;9.80;5.03;;;;;;;-1.79;56.46;95627.06;5078261;28;20235;-64
2024/01/16 08:24:31;;;;;;;8.37;5.50;;;;;;;-1.72;56.93;95631.28;5093376;28;20420;-65
2024/01/16 08:26:57;;;;;;;7.80;4.73;;;;;;;-1.51;56.63;95637.09;5091888;28;20260;-65
2024/01/16 08:29:24;;;;;;;17.77;5.40;;;;;;;-1.48;56.55;95639.66;5096718;28;20189;-66
2024/01/16 08:31:52;;;;;;;8.03;4.30;;;;;;;-1.42;56.36;95634.41;5097785;28;20441;-67
2024/01/16 08:34:18;;;;;;;11.67;5.73;;;;;;;-1.47;55.98;95641.34;5093066;28;20445;-65
2024/01/16 08:36:43;;;;;;;7.63;4.67;;;;;;;-1.26;55.72;95642.84;5097346;28;20411;-67
2024/01/16 08:39:10;;;;;;;6.37;4.47;;;;;;;-1.38;55.51;95642.97;5090442;28;20455;-69
2024/01/16 08:41:35;;;;;;;7.27;4.93;;;;;;;-1.18;55.48;95633.34;5085920;28;20252;-66
2024/01/16 08:44:01;;;;;;;7.00;5.00;;;;;;;-1.09;55.65;95634.94;5087929;28;21029;-65
2024/01/16 08:46:26;;;;;;;7.63;5.27;;;;;;;-1.04;55.79;95632.31;5087534;28;20239;-65
2024/01/16 08:48:52;;;;;;;7.17;5.30;;;;;;;-0.94;54.75;95636.53;5088183;28;20556;-66
2024/01/16 08:51:17;;;;;;;14.17;6.13;;;;;;;-0.79;54.57;95636.31;5089269;28;20672;-67
2024/01/16 08:53:43;;;;;;;7.63;5.40;;;;;;;-0.83;54.29;95628.66;5094290;28;20184;-70
2024/01/16 08:56:08;;;;;;;10.03;5.23;;;;;;;-0.74;54.17;95628.53;5100450;28;20193;-67
2024/01/16 08:58:38;;;;;;;9.40;5.37;;;;;;;-0.68;53.85;95628.47;5099251;28;20272;-67
2024/01/16 09:01:07;;;;;;;6.60;5.37;;;;;;;-0.64;53.60;95617.25;5095376;28;20231;-67
2024/01/16 09:03:33;;;;;;;8.57;5.33;;;;;;;-0.58;53.86;95618.91;5089581;28;20420;-66
2024/01/16 09:05:59;;;;;;;7.10;5.80;;;;;;;-0.67;54.37;95612.13;5089101;28;20411;-68
2024/01/16 09:08:26;;;;;;;8.93;5.57;;;;;;;-0.53;53.78;95609.38;5091839;28;20827;-64
2024/01/16 09:10:52;;;;;;;8.10;5.63;;;;;;;-0.54;53.94;95603.38;5090916;28;20211;-69
2024/01/16 09:13:18;;;;;;;8.30;6.30;;;;;;;-0.48;54.06;95599.88;5088749;28;20804;-68
2024/01/16 09:15:43;;;;;;;6.60;5.03;;;;;;;-0.60;53.95;95593.16;5089038;28;20472;-67
2024/01/16 09:18:09;;;;;;;6.53;5.83;;;;;;;-0.49;54.79;95596.44;5089403;28;20539;-67
2024/01/16 09:20:34;;;;;;;8.00;5.70;;;;;;;-0.54;54.08;95595.66;5089788;28;20264;-67
2024/01/16 09:23:00;;;;;;;13.00;6.03;;;;;;;-0.43;54.07;95604.09;5089392;28;20177;-66
2024/01/16 09:25:27;;;;;;;5.73;5.13;;;;;;;-0.45;53.90;95594.66;5089154;28;20180;-66
2024/01/16 09:27:53;;;;;;;12.67;5.87;;;;;;;-0.28;53.99;95600.44;5088179;28;20238;-67
2024/01/16 09:30:19;;;;;;;6.83;6.13;;;;;;;-0.14;53.95;95612.25;5087237;28;20455;-66
2024/01/16 09:32:45;;;;;;;9.77;5.73;;;;;;;-0.04;52.54;95606.94;5087484;28;20423;-68
2024/01/16 09:35:11;;;;;;;8.20;5.63;;;;;;;-0.01;52.88;95599.16;5087439;28;20173;-67
2024/01/16 09:37:36;;;;;;;11.50;5.47;;;;;;;0.23;53.13;95606.53;5087238;28;20941;-68
2024/01/16 09:40:02;;;;;;;9.13;5.10;;;;;;;0.32;52.77;95606.38;5087236;28;20292;-66
2024/01/16 09:42:28;;;;;;;13.23;5.33;;;;;;;0.23;52.19;95606.53;5087342;28;20875;-68
2024/01/16 09:44:55;;;;;;;14.07;7.87;;;;;;;0.09;53.38;95601.59;5087512;28;20428;-66
2024/01/16 09:47:21;;;;;;;9.60;5.30;;;;;;;0.15;52.36;95607.53;5087512;28;20249;-66
2024/01/16 09:49:48;;;;;;;10.47;4.90;;;;;;;-0.13;52.98;95606.25;5087701;28;20470;-66
2024/01/16 09:52:14;;;;;;;7.53;5.10;;;;;;;0.21;53.36;95596.22;5088042;28;20174;-66
2024/01/16 09:54:40;;;;;;;9.43;5.70;;;;;;;0.53;53.09;95587.09;5087727;28;21004;-66
2024/01/16 09:57:07;;;;;;;10.80;5.77;;;;;;;0.45;51.84;95589.84;5090058;28;20188;-68
2024/01/16 09:59:35;;;;;;;7.17;6.10;;;;;;;0.06;52.75;95589.59;5089904;28;20197;-66
2024/01/16 10:02:05;;;;;;;6.97;5.50;;;;;;;0.23;52.76;95580.75;5088210;28;20407;-65
2024/01/16 10:04:31;;;;;;;7.50;5.70;;;;;;;0.67;51.77;95579.97;5087568;28;20416;-65
2024/01/16 10:06:58;;;;;;;8.60;5.50;;;;;;;0.94;51.59;95567.38;5089247;28;20519;-65
2024/01/16 10:09:24;;;;;;;6.63;5.60;;;;;;;1.12;51.03;95579.09;5089967;28;20423;-66
2024/01/16 10:11:50;;;;;;;7.67;5.70;;;;;;;1.04;51.29;95574.94;5089420;28;20496;-66
2024/01/16 10:14:17;;;;;;;13.53;7.33;;;;;;;1.29;50.82;95582.19;5093130;28;20597;-66
2024/01/16 10:17:02;;;;;;;6.97;5.40;;;;;;;1.45;49.95;95580.13;5093248;28;20413;-64
2024/01/16 10:19:29;;;;;;;8.03;5.80;;;;;;;1.40;50.48;95569.03;5093865;28;20542;-68
2024/01/16 10:22:03;;;;;;;9.93;5.60;;;;;;;1.38;50.62;95573.41;5093201;28;20755;-65
2024/01/16 10:24:28;;;;;;;10.10;4.90;;;;;;;1.38;50.85;95576.81;5101174;28;20404;-65
2024/01/16 10:27:02;;;;;;;10.80;5.90;;;;;;;0.83;51.06;95577.94;5104441;28;20442;-66
2024/01/16 10:29:28;;;;;;;8.70;5.33;;;;;;;0.34;52.52;95584.84;5105612;28;20203;-66
2024/01/16 10:31:53;;;;;;;8.83;5.53;;;;;;;0.44;52.71;95579.53;5104638;28;20411;-67
2024/01/16 10:34:21;;;;;;;7.13;5.43;;;;;;;0.37;53.26;95568.44;5102849;28;20180;-65
2024/01/16 10:36:47;;;;;;;7.40;5.83;;;;;;;0.55;52.36;95577.59;5102431;28;20237;-64
2024/01/16 10:39:13;;;;;;;13.47;6.17;;;;;;;0.65;53.10;95580.88;5099668;28;20463;-67
2024/01/16 10:41:39;;;;;;;13.37;5.77;;;;;;;1.15;51.88;95581.63;5092777;28;20502;-66
2024/01/16 10:44:08;;;;;;;8.93;6.37;;;;;;;0.61;52.11;95583.50;5092391;28;20479;-65
2024/01/16 10:46:35;;;;;;;11.37;5.77;;;;;;;0.60;52.43;95575.78;5089882;28;20205;-65
2024/01/16 10:49:03;;;;;;;7.90;6.03;;;;;;;0.86;51.82;95572.72;5087413;28;20480;-64
2024/01/16 10:51:29;;;;;;;9.97;5.80;;;;;;;1.57;51.21;95564.34;5087025;28;20473;-66
2024/01/16 10:54:10;;;;;;;9.23;5.33;;;;;;;2.19;48.86;95550.81;5086637;28;20448;-65
2024/01/16 10:56:36;;;;;;;9.70;5.70;;;;;;;2.55;48.03;95537.81;5086852;28;20411;-65
2024/01/16 10:59:14;;;;;;;9.27;5.13;;;;;;;2.47;47.82;95532.84;5087338;28;20463;-64
2024/01/16 11:01:45;;;;;;;6.47;4.53;;;;;;;2.29;47.74;95535.91;5087079;28;20720;-64
2024/01/16 11:04:12;;;;;;;9.37;4.83;;;;;;;1.33;49.45;95534.72;5086458;28;20476;-65
2024/01/16 11:06:39;;;;;;;6.70;5.80;;;;;;;1.66;49.59;95535.69;5088046;28;20408;-67
2024/01/16 11:09:07;;;;;;;12.73;5.27;;;;;;;2.23;48.74;95533.47;5087241;28;20432;-65
2024/01/16 11:11:34;;;;;;;6.93;5.73;;;;;;;2.39;47.91;95529.63;5090295;28;20504;-67
2024/01/16 11:14:03;;;;;;;8.50;5.90;;;;;;;2.74;47.51;95526.09;5090798;28;20400;-67
2024/01/16 11:16:31;;;;;;;6.60;5.33;;;;;;;2.95;46.42;95528.97;5090575;28;20529;-66
2024/01/16 11:18:57;;;;;;;9.37;6.03;;;;;;;2.57;47.69;95527.41;5090065;28;21082;-66
2024/01/16 11:21:23;;;;;;;9.70;5.30;;;;;;;2.16;48.24;95530.19;5091208;28;20419;-66
2024/01/16 11:23:49;;;;;;;8.30;5.37;;;;;;;1.63;49.36;95532.31;5090596;28;20196;-66
2024/01/16 11:26:24;;;;;;;6.63;5.03;;;;;;;1.49;49.94;95532.66;5089090;28;20408;-67
2024/01/16 11:28:49;;;;;;;7.17;4.20;;;;;;;1.91;49.81;95519.59;5089543;28;20544;-65